createdAt,value
2019-02-11T00:00:11.236Z,41.89
2019-02-11T00:01:11.190Z,41.89
2019-02-11T00:02:11.177Z,41.89
2019-02-11T00:03:11.168Z,41.89
2019-02-11T00:04:11.172Z,41.99
2019-02-11T00:05:11.144Z,41.89
2019-02-11T00:06:11.153Z,41.89
2019-02-11T00:07:11.126Z,41.99
2019-02-11T00:08:11.108Z,41.99
2019-02-11T00:09:11.100Z,41.89
2019-02-11T00:10:11.119Z,41.99
2019-02-11T00:11:11.080Z,41.99
2019-02-11T00:12:11.069Z,41.99
2019-02-11T00:13:11.120Z,41.99
2019-02-11T00:14:11.048Z,41.99
2019-02-11T00:15:11.041Z,41.99
2019-02-11T00:16:11.046Z,41.99
2019-02-11T00:17:11.037Z,41.99
2019-02-11T00:18:11.006Z,42.10
2019-02-11T00:19:11.130Z,42.10
2019-02-11T00:20:10.984Z,42.10
2019-02-11T00:21:10.972Z,42.10
2019-02-11T00:22:10.963Z,42.10
2019-02-11T00:23:10.971Z,42.10
2019-02-11T00:24:10.939Z,42.10
2019-02-11T00:25:10.932Z,42.10
2019-02-11T00:26:10.912Z,42.10
2019-02-11T00:27:10.910Z,42.10
2019-02-11T00:28:10.920Z,42.10
2019-02-11T00:29:10.906Z,42.10
2019-02-11T00:30:10.872Z,42.10
2019-02-11T00:31:10.883Z,42.19
2019-02-11T00:32:10.852Z,42.19
2019-02-11T00:33:10.846Z,42.19
2019-02-11T00:34:10.837Z,42.19
2019-02-11T00:35:10.841Z,42.19
2019-02-11T00:36:10.810Z,42.19
2019-02-11T00:37:10.798Z,42.19
2019-02-11T00:38:10.831Z,42.19
2019-02-11T00:39:10.775Z,42.19
2019-02-11T00:40:10.768Z,42.30
2019-02-11T00:41:10.773Z,42.30
2019-02-11T00:42:10.759Z,42.30
2019-02-11T00:43:18.729Z,42.30
2019-02-11T00:44:11.727Z,42.30
2019-02-11T00:45:10.711Z,42.30
2019-02-11T00:46:10.701Z,42.30
2019-02-11T00:47:10.691Z,42.30
2019-02-11T00:48:10.680Z,42.40
2019-02-11T00:49:10.686Z,42.40
2019-02-11T00:50:10.656Z,42.40
2019-02-11T00:51:10.660Z,42.40
2019-02-11T00:52:10.630Z,42.40
2019-02-11T00:53:10.644Z,42.40
2019-02-11T00:54:10.619Z,42.40
2019-02-11T00:55:10.601Z,42.40
2019-02-11T00:56:10.596Z,42.40
2019-02-11T00:57:10.585Z,42.40
2019-02-11T00:58:10.568Z,42.40
2019-02-11T00:59:10.779Z,42.40
2019-02-11T01:00:10.546Z,42.40
2019-02-11T01:01:10.540Z,42.40
2019-02-11T01:02:10.530Z,42.49
2019-02-11T01:03:10.511Z,42.49
2019-02-11T01:04:10.507Z,42.49
2019-02-11T01:05:10.512Z,42.49
2019-02-11T01:06:10.484Z,42.49
2019-02-11T01:07:10.474Z,42.49
2019-02-11T01:08:10.466Z,42.49
2019-02-11T01:09:10.455Z,42.49
2019-02-11T01:10:10.456Z,42.49
2019-02-11T01:11:10.432Z,42.60
2019-02-11T01:12:10.418Z,42.60
2019-02-11T01:13:10.413Z,42.60
2019-02-11T01:14:10.411Z,42.60
2019-02-11T01:15:10.404Z,42.60
2019-02-11T01:16:10.381Z,42.60
2019-02-11T01:17:10.367Z,42.60
2019-02-11T01:18:10.357Z,42.60
2019-02-11T01:19:10.343Z,42.60
2019-02-11T01:20:10.338Z,42.60
2019-02-11T01:21:10.460Z,42.60
2019-02-11T01:22:10.331Z,42.60
2019-02-11T01:23:10.306Z,42.60
2019-02-11T01:24:10.291Z,42.60
2019-02-11T01:25:10.279Z,42.69
2019-02-11T01:26:10.268Z,42.69
2019-02-11T01:27:10.286Z,42.69
2019-02-11T01:28:10.244Z,42.69
2019-02-11T01:29:10.239Z,42.60
2019-02-11T01:30:10.245Z,42.69
2019-02-11T01:31:10.217Z,42.69
2019-02-11T01:32:10.206Z,42.69
2019-02-11T01:33:10.193Z,42.69
2019-02-11T01:34:10.207Z,42.69
2019-02-11T01:35:10.193Z,42.69
2019-02-11T01:36:10.162Z,42.69
2019-02-11T01:37:10.174Z,42.69
2019-02-11T01:38:10.142Z,42.80
2019-02-11T01:39:10.129Z,42.80
2019-02-11T01:40:10.141Z,42.80
2019-02-11T01:41:10.107Z,42.80
2019-02-11T01:42:10.095Z,42.80
2019-02-11T01:43:10.089Z,42.80
2019-02-11T01:44:10.081Z,42.80
2019-02-11T01:45:10.085Z,42.80
2019-02-11T01:46:10.052Z,42.80
2019-02-11T01:47:10.066Z,42.80
2019-02-11T01:48:10.036Z,42.80
2019-02-11T01:49:10.026Z,42.80
2019-02-11T01:50:10.036Z,42.80
2019-02-11T01:51:10.009Z,42.90
2019-02-11T01:52:10.012Z,42.80
2019-02-11T01:53:09.980Z,42.90
2019-02-11T01:54:09.972Z,42.90
2019-02-11T01:55:09.961Z,42.90
2019-02-11T01:56:09.949Z,42.90
2019-02-11T01:57:09.942Z,42.90
2019-02-11T01:58:10.219Z,42.90
2019-02-11T01:59:09.916Z,42.90
2019-02-11T02:00:09.917Z,42.90
2019-02-11T02:01:09.899Z,42.90
2019-02-11T02:02:09.881Z,42.90
2019-02-11T02:03:09.870Z,42.90
2019-02-11T02:04:09.879Z,42.90
2019-02-11T02:05:09.874Z,42.90
2019-02-11T02:06:09.842Z,43.00
2019-02-11T02:07:09.831Z,42.90
2019-02-11T02:08:09.819Z,43.00
2019-02-11T02:09:09.805Z,43.00
2019-02-11T02:10:09.841Z,43.00
2019-02-11T02:11:09.790Z,43.00
2019-02-11T02:12:09.774Z,43.00
2019-02-11T02:13:09.769Z,43.10
2019-02-11T02:14:09.757Z,43.10
2019-02-11T02:15:09.744Z,43.10
2019-02-11T02:16:09.956Z,43.10
2019-02-11T02:17:09.727Z,43.10
2019-02-11T02:18:09.713Z,43.10
2019-02-11T02:19:09.708Z,43.10
2019-02-11T02:20:09.706Z,43.10
2019-02-11T02:21:09.679Z,43.10
2019-02-11T02:22:09.687Z,43.10
2019-02-11T02:23:09.655Z,43.10
2019-02-11T02:24:09.647Z,43.10
2019-02-11T02:25:09.639Z,43.20
2019-02-11T02:26:09.626Z,43.20
2019-02-11T02:27:09.617Z,43.10
2019-02-11T02:28:09.627Z,43.20
2019-02-11T02:29:09.588Z,43.20
2019-02-11T02:30:09.585Z,43.20
2019-02-11T02:31:09.577Z,43.20
2019-02-11T02:32:09.566Z,43.20
2019-02-11T02:33:09.559Z,43.20
2019-02-11T02:34:09.569Z,43.20
2019-02-11T02:35:09.528Z,43.20
2019-02-11T02:36:09.738Z,43.20
2019-02-11T02:37:09.512Z,43.20
2019-02-11T02:38:09.498Z,43.20
2019-02-11T02:39:09.489Z,43.20
2019-02-11T02:40:09.478Z,43.20
2019-02-11T02:41:09.466Z,43.20
2019-02-11T02:42:09.475Z,43.20
2019-02-11T02:43:09.454Z,43.20
2019-02-11T02:44:09.443Z,43.20
2019-02-11T02:45:09.443Z,43.20
2019-02-11T02:46:23.914Z,43.20
2019-02-11T02:47:09.416Z,43.20
2019-02-11T02:48:09.408Z,43.20
2019-02-11T02:49:09.382Z,43.30
2019-02-11T02:50:09.368Z,43.30
2019-02-11T02:51:09.437Z,43.30
2019-02-11T02:52:09.350Z,43.30
2019-02-11T02:53:09.332Z,43.30
2019-02-11T02:54:09.330Z,43.30
2019-02-11T02:55:09.319Z,43.30
2019-02-11T02:56:09.335Z,43.30
2019-02-11T02:57:09.292Z,43.40
2019-02-11T02:58:09.283Z,43.30
2019-02-11T02:59:09.266Z,43.30
2019-02-11T03:00:09.260Z,43.30
2019-02-11T03:01:09.253Z,43.30
2019-02-11T03:02:09.256Z,43.40
2019-02-11T03:03:09.224Z,43.42
2019-02-11T03:04:09.224Z,43.40
2019-02-11T03:05:09.209Z,43.40
2019-02-11T03:06:09.197Z,43.42
2019-02-11T03:07:09.203Z,43.40
2019-02-11T03:08:09.176Z,43.40
2019-02-11T03:09:09.161Z,43.40
2019-02-11T03:10:09.160Z,43.40
2019-02-11T03:11:09.139Z,43.40
2019-02-11T03:12:09.146Z,43.40
2019-02-11T03:13:10.139Z,43.40
2019-02-11T03:14:09.109Z,43.40
2019-02-11T03:15:09.095Z,43.40
2019-02-11T03:16:09.119Z,43.40
2019-02-11T03:17:09.077Z,43.40
2019-02-11T03:18:09.068Z,43.40
2019-02-11T03:19:09.337Z,43.40
2019-02-11T03:20:09.049Z,43.40
2019-02-11T03:21:09.038Z,43.42
2019-02-11T03:22:09.030Z,43.40
2019-02-11T03:23:09.014Z,43.52
2019-02-11T03:24:08.998Z,43.52
2019-02-11T03:25:09.204Z,43.50
2019-02-11T03:26:08.976Z,43.50
2019-02-11T03:27:08.971Z,43.50
2019-02-11T03:28:08.964Z,43.42
2019-02-11T03:29:08.962Z,43.40
2019-02-11T03:30:08.949Z,43.42
2019-02-11T03:31:08.976Z,43.42
2019-02-11T03:32:08.922Z,43.50
2019-02-11T03:33:08.906Z,43.50
2019-02-11T03:34:08.895Z,43.52
2019-02-11T03:35:08.895Z,43.52
2019-02-11T03:36:08.876Z,43.50
2019-02-11T03:37:08.886Z,43.40
2019-02-11T03:38:08.867Z,43.50
2019-02-11T03:39:08.885Z,43.52
2019-02-11T03:40:08.843Z,43.52
2019-02-11T03:41:08.819Z,43.52
2019-02-11T03:42:08.811Z,43.52
2019-02-11T03:43:08.800Z,43.52
2019-02-11T03:44:14.878Z,43.50
2019-02-11T03:45:09.796Z,43.50
2019-02-11T03:46:08.763Z,43.52
2019-02-11T03:47:08.765Z,43.50
2019-02-11T03:48:08.752Z,43.50
2019-02-11T03:49:08.733Z,43.52
2019-02-11T03:50:08.720Z,43.50
2019-02-11T03:51:08.738Z,43.52
2019-02-11T03:52:08.717Z,43.50
2019-02-11T03:53:08.697Z,43.52
2019-02-11T03:54:08.677Z,43.50
2019-02-11T03:55:08.669Z,43.52
2019-02-11T03:56:08.664Z,43.52
2019-02-11T03:57:08.862Z,43.52
2019-02-11T03:58:08.637Z,43.62
2019-02-11T03:59:08.624Z,43.62
2019-02-11T04:00:08.648Z,43.50
2019-02-11T04:01:08.614Z,43.52
2019-02-11T04:02:08.606Z,43.62
2019-02-11T04:03:08.619Z,43.62
2019-02-11T04:04:08.573Z,43.62
2019-02-11T04:05:08.563Z,43.60
2019-02-11T04:06:08.564Z,43.62
2019-02-11T04:07:08.548Z,43.62
2019-02-11T04:08:08.537Z,43.62
2019-02-11T04:09:08.552Z,43.62
2019-02-11T04:10:08.507Z,43.62
2019-02-11T04:11:08.507Z,43.62
2019-02-11T04:12:08.511Z,43.62
2019-02-11T04:13:08.478Z,43.62
2019-02-11T04:14:08.469Z,43.62
2019-02-11T04:15:08.478Z,43.62
2019-02-11T04:16:08.469Z,43.62
2019-02-11T04:17:08.440Z,43.72
2019-02-11T04:18:08.442Z,43.72
2019-02-11T04:19:08.418Z,43.62
2019-02-11T04:20:08.410Z,43.62
2019-02-11T04:21:08.415Z,43.72
2019-02-11T04:22:08.395Z,43.72
2019-02-11T04:23:08.389Z,43.72
2019-02-11T04:24:08.419Z,43.72
2019-02-11T04:25:08.364Z,43.62
2019-02-11T04:26:08.335Z,43.72
2019-02-11T04:27:08.324Z,43.72
2019-02-11T04:28:08.316Z,43.72
2019-02-11T04:29:08.329Z,43.72
2019-02-11T04:30:08.293Z,43.72
2019-02-11T04:31:08.288Z,43.72
2019-02-11T04:32:08.271Z,43.72
2019-02-11T04:33:08.259Z,43.72
2019-02-11T04:34:08.253Z,43.62
2019-02-11T04:35:08.278Z,43.62
2019-02-11T04:36:08.226Z,43.72
2019-02-11T04:37:08.238Z,43.72
2019-02-11T04:38:08.203Z,43.72
2019-02-11T04:39:08.195Z,43.72
2019-02-11T04:40:08.191Z,43.72
2019-02-11T04:41:08.174Z,43.72
2019-02-11T04:42:08.164Z,43.72
2019-02-11T04:43:08.174Z,43.72
2019-02-11T04:44:08.163Z,43.62
2019-02-11T04:45:08.139Z,43.62
2019-02-11T04:46:08.119Z,43.62
2019-02-11T04:47:08.118Z,43.62
2019-02-11T04:48:08.099Z,43.72
2019-02-11T04:49:08.088Z,43.72
2019-02-11T04:50:08.112Z,43.62
2019-02-11T04:51:08.065Z,43.72
2019-02-11T04:52:08.061Z,43.72
2019-02-11T04:53:08.050Z,43.72
2019-02-11T04:54:08.038Z,43.62
2019-02-11T04:55:08.056Z,43.62
2019-02-11T04:56:08.011Z,43.62
2019-02-11T04:57:08.006Z,43.62
2019-02-11T04:58:07.995Z,43.72
2019-02-11T04:59:07.978Z,43.72
2019-02-11T05:00:07.993Z,43.72
2019-02-11T05:01:07.959Z,43.72
2019-02-11T05:02:07.945Z,43.82
2019-02-11T05:03:07.941Z,43.82
2019-02-11T05:04:07.949Z,43.82
2019-02-11T05:05:07.909Z,43.82
2019-02-11T05:06:07.899Z,43.82
2019-02-11T05:07:07.895Z,43.82
2019-02-11T05:08:07.880Z,43.92
2019-02-11T05:09:07.946Z,43.82
2019-02-11T05:10:07.856Z,43.82
2019-02-11T05:11:07.915Z,43.82
2019-02-11T05:12:07.838Z,43.82
2019-02-11T05:13:07.827Z,43.82
2019-02-11T05:14:07.816Z,43.82
2019-02-11T05:15:07.951Z,43.82
2019-02-11T05:16:07.806Z,43.82
2019-02-11T05:17:07.781Z,43.82
2019-02-11T05:18:07.765Z,43.82
2019-02-11T05:19:07.758Z,43.82
2019-02-11T05:20:07.771Z,43.82
2019-02-11T05:21:07.755Z,43.72
2019-02-11T05:22:07.737Z,43.72
2019-02-11T05:23:07.713Z,43.70
2019-02-11T05:24:07.706Z,43.72
2019-02-11T05:25:07.692Z,43.72
2019-02-11T05:26:07.703Z,43.70
2019-02-11T05:27:07.671Z,43.62
2019-02-11T05:28:07.677Z,43.70
2019-02-11T05:29:07.646Z,43.70
2019-02-11T05:30:07.644Z,43.70
2019-02-11T05:31:07.622Z,43.72
2019-02-11T05:32:07.632Z,43.60
2019-02-11T05:33:07.691Z,43.62
2019-02-11T05:34:07.619Z,43.60
2019-02-11T05:35:07.601Z,43.60
2019-02-11T05:36:07.588Z,43.60
2019-02-11T05:37:07.556Z,43.60
2019-02-11T05:38:07.562Z,43.60
2019-02-11T05:39:07.532Z,43.60
2019-02-11T05:40:07.526Z,43.60
2019-02-11T05:41:07.517Z,43.60
2019-02-11T05:42:07.726Z,43.60
2019-02-11T05:43:07.491Z,43.50
2019-02-11T05:44:07.476Z,43.50
2019-02-11T05:45:07.465Z,43.50
2019-02-11T05:46:07.457Z,43.50
2019-02-11T05:47:07.448Z,43.50
2019-02-11T05:48:07.456Z,43.50
2019-02-11T05:49:07.424Z,43.50
2019-02-11T05:50:07.412Z,43.50
2019-02-11T05:51:07.418Z,43.50
2019-02-11T05:52:07.412Z,43.50
2019-02-11T05:53:07.386Z,43.50
2019-02-11T05:54:07.370Z,43.50
2019-02-11T05:55:07.365Z,43.50
2019-02-11T05:56:07.350Z,43.50
2019-02-11T05:57:07.332Z,43.50
2019-02-11T05:58:07.339Z,43.50
2019-02-11T05:59:07.338Z,43.50
2019-02-11T06:00:07.304Z,43.50
2019-02-11T06:01:07.312Z,43.50
2019-02-11T06:02:07.276Z,43.50
2019-02-11T06:03:09.413Z,43.50
2019-02-11T06:04:07.253Z,43.50
2019-02-11T06:05:07.263Z,43.50
2019-02-11T06:06:07.245Z,43.50
2019-02-11T06:07:07.228Z,43.50
2019-02-11T06:08:07.214Z,43.50
2019-02-11T06:09:07.226Z,43.50
2019-02-11T06:10:07.190Z,43.50
2019-02-11T06:11:07.182Z,43.50
2019-02-11T06:12:07.172Z,43.50
2019-02-11T06:13:07.159Z,43.50
2019-02-11T06:14:07.157Z,43.50
2019-02-11T06:15:07.161Z,43.50
2019-02-11T06:16:07.128Z,43.50
2019-02-11T06:17:07.114Z,43.50
2019-02-11T06:18:07.105Z,43.50
2019-02-11T06:19:07.090Z,43.50
2019-02-11T06:20:07.106Z,43.50
2019-02-11T06:21:07.070Z,43.50
2019-02-11T06:22:07.064Z,43.50
2019-02-11T06:23:07.044Z,43.50
2019-02-11T06:24:07.053Z,43.50
2019-02-11T06:25:07.026Z,43.50
2019-02-11T06:26:07.069Z,43.50
2019-02-11T06:27:06.997Z,43.50
2019-02-11T06:28:06.987Z,43.50
2019-02-11T06:29:06.983Z,43.50
2019-02-11T06:30:06.970Z,43.50
2019-02-11T06:31:06.961Z,43.50
2019-02-11T06:32:06.963Z,43.50
2019-02-11T06:33:06.931Z,43.50
2019-02-11T06:34:06.924Z,43.50
2019-02-11T06:35:06.964Z,43.50
2019-02-11T06:36:12.332Z,43.50
2019-02-11T06:37:08.094Z,43.50
2019-02-11T06:38:06.878Z,43.50
2019-02-11T06:39:06.872Z,43.50
2019-02-11T06:40:06.862Z,43.50
2019-02-11T06:41:06.848Z,43.50
2019-02-11T06:42:06.837Z,43.50
2019-02-11T06:43:06.841Z,43.50
2019-02-11T06:44:07.034Z,43.60
2019-02-11T06:45:12.728Z,43.60
2019-02-11T06:46:07.790Z,43.60
2019-02-11T06:47:06.797Z,43.60
2019-02-11T06:48:06.767Z,43.60
2019-02-11T06:49:06.758Z,43.60
2019-02-11T06:50:06.766Z,43.60
2019-02-11T06:51:06.740Z,43.60
2019-02-11T06:52:06.723Z,43.60
2019-02-11T06:53:06.722Z,43.60
2019-02-11T06:54:06.930Z,43.60
2019-02-11T06:55:06.696Z,43.60
2019-02-11T06:56:06.687Z,43.70
2019-02-11T06:57:06.700Z,43.60
2019-02-11T06:58:06.660Z,43.60
2019-02-11T06:59:06.652Z,43.60
2019-02-11T07:00:06.669Z,43.60
2019-02-11T07:01:06.641Z,43.60
2019-02-11T07:02:06.621Z,43.60
2019-02-11T07:03:06.608Z,43.60
2019-02-11T07:04:06.602Z,43.60
2019-02-11T07:05:06.606Z,43.60
2019-02-11T07:06:06.797Z,43.60
2019-02-11T07:07:06.570Z,43.60
2019-02-11T07:08:07.955Z,43.60
2019-02-11T07:09:06.546Z,43.62
2019-02-11T07:10:06.555Z,43.60
2019-02-11T07:11:06.527Z,43.60
2019-02-11T07:12:06.739Z,43.60
2019-02-11T07:13:06.501Z,43.60
2019-02-11T07:14:06.495Z,43.60
2019-02-11T07:15:06.483Z,43.60
2019-02-11T07:16:06.468Z,43.60
2019-02-11T07:17:06.457Z,43.60
2019-02-11T07:18:06.469Z,43.60
2019-02-11T07:19:06.443Z,43.60
2019-02-11T07:20:06.449Z,43.60
2019-02-11T07:21:06.412Z,43.60
2019-02-11T07:22:06.434Z,43.60
2019-02-11T07:23:06.422Z,43.60
2019-02-11T07:24:06.382Z,43.60
2019-02-11T07:25:06.370Z,43.60
2019-02-11T07:26:06.360Z,43.60
2019-02-11T07:27:06.346Z,43.60
2019-02-11T07:28:06.337Z,43.60
2019-02-11T07:29:06.362Z,43.60
2019-02-11T07:30:06.324Z,43.60
2019-02-11T07:31:06.302Z,43.50
2019-02-11T07:32:06.300Z,43.60
2019-02-11T07:33:06.296Z,43.60
2019-02-11T07:34:06.273Z,43.60
2019-02-11T07:35:06.283Z,43.60
2019-02-11T07:36:06.254Z,43.60
2019-02-11T07:37:06.237Z,43.60
2019-02-11T07:38:06.457Z,43.60
2019-02-11T07:39:06.222Z,43.60
2019-02-11T07:40:06.211Z,43.60
2019-02-11T07:41:06.196Z,43.60
2019-02-11T07:42:06.192Z,43.60
2019-02-11T07:43:06.185Z,43.60
2019-02-11T07:44:06.191Z,43.60
2019-02-11T07:45:06.159Z,43.60
2019-02-11T07:46:06.148Z,43.70
2019-02-11T07:47:06.139Z,43.70
2019-02-11T07:48:06.124Z,43.70
2019-02-11T07:49:06.114Z,43.70
2019-02-11T07:50:06.116Z,43.60
2019-02-11T07:51:06.116Z,43.70
2019-02-11T07:52:06.079Z,43.70
2019-02-11T07:53:06.071Z,43.60
2019-02-11T07:54:06.062Z,43.60
2019-02-11T07:55:06.044Z,43.60
2019-02-11T07:56:06.037Z,43.60
2019-02-11T07:57:06.050Z,43.60
2019-02-11T07:58:06.016Z,43.70
2019-02-11T07:59:06.001Z,43.70
2019-02-11T08:00:06.000Z,43.60
2019-02-11T08:01:05.980Z,43.60
2019-02-11T08:02:06.095Z,43.60
2019-02-11T08:03:05.963Z,43.60
2019-02-11T08:04:05.951Z,43.60
2019-02-11T08:05:05.937Z,43.60
2019-02-11T08:06:05.949Z,43.60
2019-02-11T08:07:05.920Z,43.60
2019-02-11T08:08:05.933Z,43.60
2019-02-11T08:09:05.892Z,43.60
2019-02-11T08:10:05.889Z,43.60
2019-02-11T08:11:05.911Z,43.60
2019-02-11T08:12:05.860Z,43.60
2019-02-11T08:13:05.856Z,43.60
2019-02-11T08:14:05.847Z,43.60
2019-02-11T08:15:05.971Z,43.60
2019-02-11T08:16:05.841Z,43.60
2019-02-11T08:17:05.813Z,43.60
2019-02-11T08:18:05.812Z,43.60
2019-02-11T08:19:05.806Z,43.60
2019-02-11T08:20:05.782Z,43.60
2019-02-11T08:21:05.792Z,43.60
2019-02-11T08:22:05.753Z,43.60
2019-02-11T08:23:11.942Z,43.60
2019-02-11T08:24:06.749Z,43.60
2019-02-11T08:25:05.717Z,43.60
2019-02-11T08:26:06.226Z,43.70
2019-02-11T08:27:05.729Z,43.60
2019-02-11T08:28:05.688Z,43.60
2019-02-11T08:29:05.689Z,43.60
2019-02-11T08:30:05.664Z,43.60
2019-02-11T08:31:05.649Z,43.60
2019-02-11T08:32:05.644Z,43.60
2019-02-11T08:33:05.666Z,43.50
2019-02-11T08:34:05.620Z,43.50
2019-02-11T08:35:05.615Z,43.50
2019-02-11T08:36:05.599Z,43.50
2019-02-11T08:37:05.590Z,43.50
2019-02-11T08:38:05.611Z,43.50
2019-02-11T08:39:05.582Z,43.50
2019-02-11T08:40:05.552Z,43.60
2019-02-11T08:41:05.545Z,43.60
2019-02-11T08:42:05.533Z,43.60
2019-02-11T08:43:05.544Z,43.70
2019-02-11T08:44:05.520Z,43.70
2019-02-11T08:45:05.497Z,43.60
2019-02-11T08:46:05.495Z,43.60
2019-02-11T08:47:05.475Z,43.70
2019-02-11T08:48:05.505Z,43.70
2019-02-11T08:49:05.471Z,43.70
2019-02-11T08:50:05.449Z,43.60
2019-02-11T08:51:05.441Z,43.60
2019-02-11T08:52:05.428Z,43.50
2019-02-11T08:53:05.415Z,43.50
2019-02-11T08:54:05.430Z,43.50
2019-02-11T08:55:05.394Z,43.60
2019-02-11T08:56:05.387Z,43.60
2019-02-11T08:57:05.395Z,43.60
2019-02-11T08:58:05.357Z,43.70
2019-02-11T08:59:05.351Z,43.70
2019-02-11T09:00:05.343Z,43.70
2019-02-11T09:01:05.333Z,43.60
2019-02-11T09:02:05.464Z,43.90
2019-02-11T09:03:05.322Z,43.90
2019-02-11T09:04:05.301Z,43.90
2019-02-11T09:05:05.315Z,43.90
2019-02-11T09:06:05.276Z,44.10
2019-02-11T09:07:05.262Z,44.10
2019-02-11T09:08:05.284Z,44.20
2019-02-11T09:09:05.242Z,44.31
2019-02-11T09:10:05.233Z,44.51
2019-02-11T09:11:05.222Z,44.51
2019-02-11T09:12:05.213Z,44.60
2019-02-11T09:13:05.200Z,44.60
2019-02-11T09:14:05.215Z,44.71
2019-02-11T09:15:05.205Z,44.51
2019-02-11T09:16:05.167Z,44.60
2019-02-11T09:17:10.479Z,44.40
2019-02-11T09:18:06.142Z,44.40
2019-02-11T09:19:05.155Z,44.40
2019-02-11T09:20:05.123Z,44.51
2019-02-11T09:21:05.142Z,44.71
2019-02-11T09:22:07.539Z,44.71
2019-02-11T09:23:05.098Z,44.81
2019-02-11T09:24:05.371Z,44.81
2019-02-11T09:25:05.094Z,44.60
2019-02-11T09:26:05.061Z,44.51
2019-02-11T09:27:05.050Z,44.31
2019-02-11T09:28:05.046Z,44.20
2019-02-11T09:29:05.027Z,44.20
2019-02-11T09:30:05.041Z,44.10
2019-02-11T09:31:05.011Z,44.10
2019-02-11T09:32:04.994Z,44.00
2019-02-11T09:33:04.983Z,44.00
2019-02-11T09:34:04.977Z,43.90
2019-02-11T09:35:04.987Z,43.90
2019-02-11T09:36:04.974Z,43.80
2019-02-11T09:37:04.940Z,43.90
2019-02-11T09:38:04.938Z,43.90
2019-02-11T09:39:04.951Z,43.90
2019-02-11T09:40:04.934Z,43.80
2019-02-11T09:41:04.897Z,43.80
2019-02-11T09:42:04.891Z,43.70
2019-02-11T09:43:04.883Z,43.70
2019-02-11T09:44:04.871Z,43.70
2019-02-11T09:45:04.857Z,43.60
2019-02-11T09:46:04.872Z,43.60
2019-02-11T09:47:04.875Z,43.60
2019-02-11T09:48:04.835Z,43.60
2019-02-11T09:49:04.811Z,43.60
2019-02-11T09:50:04.804Z,43.50
2019-02-11T09:51:04.796Z,43.50
2019-02-11T09:52:04.789Z,43.50
2019-02-11T09:53:04.798Z,43.40
2019-02-11T09:54:04.762Z,43.40
2019-02-11T09:55:04.758Z,43.40
2019-02-11T09:56:04.751Z,43.40
2019-02-11T09:57:04.756Z,43.40
2019-02-11T09:58:04.729Z,43.40
2019-02-11T09:59:04.766Z,43.30
2019-02-11T10:00:04.698Z,43.30
2019-02-11T10:01:04.691Z,43.30
2019-02-11T10:02:04.676Z,43.20
2019-02-11T10:03:04.684Z,43.20
2019-02-11T10:04:04.707Z,43.20
2019-02-11T10:05:04.649Z,43.20
2019-02-11T10:06:04.638Z,43.20
2019-02-11T10:07:04.624Z,43.20
2019-02-11T10:08:04.638Z,43.10
2019-02-11T10:09:04.622Z,43.10
2019-02-11T10:10:04.593Z,43.10
2019-02-11T10:11:04.583Z,43.10
2019-02-11T10:12:04.575Z,43.10
2019-02-11T10:13:04.556Z,43.10
2019-02-11T10:14:04.575Z,43.00
2019-02-11T10:15:04.542Z,43.00
2019-02-11T10:16:12.129Z,42.88
2019-02-11T10:17:05.511Z,42.90
2019-02-11T10:18:04.506Z,42.88
2019-02-11T10:19:04.498Z,42.90
2019-02-11T10:20:04.617Z,42.90
2019-02-11T10:21:04.499Z,42.88
2019-02-11T10:22:04.463Z,42.80
2019-02-11T10:23:04.450Z,42.78
2019-02-11T10:24:04.437Z,42.88
2019-02-11T10:25:04.431Z,43.00
2019-02-11T10:26:04.437Z,42.97
2019-02-11T10:27:04.404Z,43.00
2019-02-11T10:28:04.396Z,42.97
2019-02-11T10:29:04.387Z,43.00
2019-02-11T10:30:04.372Z,43.28
2019-02-11T10:31:04.386Z,43.68
2019-02-11T10:32:04.651Z,43.48
2019-02-11T10:33:04.344Z,43.38
2019-02-11T10:34:04.331Z,43.28
2019-02-11T10:35:04.329Z,43.28
2019-02-11T10:36:04.320Z,43.28
2019-02-11T10:37:04.304Z,43.18
2019-02-11T10:38:04.407Z,43.08
2019-02-11T10:39:04.279Z,43.08
2019-02-11T10:40:04.273Z,43.10
2019-02-11T10:41:04.263Z,43.20
2019-02-11T10:42:04.252Z,43.20
2019-02-11T10:43:04.236Z,43.20
2019-02-11T10:44:04.364Z,43.20
2019-02-11T10:45:04.215Z,43.20
2019-02-11T10:46:04.203Z,43.10
2019-02-11T10:47:04.194Z,43.10
2019-02-11T10:48:04.189Z,43.10
2019-02-11T10:49:04.177Z,43.10
2019-02-11T10:50:04.277Z,43.10
2019-02-11T10:51:04.150Z,43.00
2019-02-11T10:52:04.139Z,43.10
2019-02-11T10:53:04.130Z,43.10
2019-02-11T10:54:04.140Z,43.10
2019-02-11T10:55:04.109Z,43.10
2019-02-11T10:56:04.117Z,43.10
2019-02-11T10:57:04.086Z,43.10
2019-02-11T10:58:04.074Z,43.10
2019-02-11T10:59:04.063Z,43.10
2019-02-11T11:00:04.059Z,43.10
2019-02-11T11:01:04.073Z,43.10
2019-02-11T11:02:04.030Z,43.00
2019-02-11T11:03:04.025Z,43.00
2019-02-11T11:04:04.016Z,43.00
2019-02-11T11:05:04.001Z,43.00
2019-02-11T11:06:03.989Z,43.10
2019-02-11T11:07:04.013Z,43.10
2019-02-11T11:08:03.965Z,43.10
2019-02-11T11:09:04.659Z,43.10
2019-02-11T11:10:03.946Z,43.10
2019-02-11T11:11:03.930Z,43.10
2019-02-11T11:12:03.926Z,43.10
2019-02-11T11:13:03.935Z,43.20
2019-02-11T11:14:03.897Z,43.30
2019-02-11T11:15:03.889Z,43.30
2019-02-11T11:16:03.882Z,43.30
2019-02-11T11:17:03.877Z,43.30
2019-02-11T11:18:03.881Z,43.30
2019-02-11T11:19:03.850Z,43.30
2019-02-11T11:20:03.834Z,43.30
2019-02-11T11:21:03.824Z,43.30
2019-02-11T11:22:03.817Z,43.30
2019-02-11T11:23:03.800Z,43.30
2019-02-11T11:24:03.816Z,43.30
2019-02-11T11:25:03.782Z,43.30
2019-02-11T11:26:03.772Z,43.30
2019-02-11T11:27:03.763Z,43.30
2019-02-11T11:28:03.752Z,43.30
2019-02-11T11:29:03.758Z,43.20
2019-02-11T11:30:03.732Z,43.20
2019-02-11T11:31:03.721Z,43.20
2019-02-11T11:32:03.702Z,43.20
2019-02-11T11:33:03.695Z,43.10
2019-02-11T11:34:03.713Z,43.10
2019-02-11T11:35:03.713Z,43.10
2019-02-11T11:36:03.659Z,43.20
2019-02-11T11:37:03.649Z,43.20
2019-02-11T11:38:03.641Z,43.10
2019-02-11T11:39:03.632Z,43.10
2019-02-11T11:40:03.640Z,43.10
2019-02-11T11:41:03.641Z,43.10
2019-02-11T11:42:03.604Z,43.10
2019-02-11T11:43:03.587Z,43.00
2019-02-11T11:44:03.578Z,43.00
2019-02-11T11:45:03.565Z,43.10
2019-02-11T11:46:03.558Z,43.00
2019-02-11T11:47:03.566Z,43.00
2019-02-11T11:48:03.531Z,43.10
2019-02-11T11:49:03.523Z,43.00
2019-02-11T11:50:03.529Z,43.00
2019-02-11T11:51:03.498Z,43.00
2019-02-11T11:52:03.500Z,43.00
2019-02-11T11:53:03.502Z,43.00
2019-02-11T11:54:03.585Z,43.00
2019-02-11T11:55:03.472Z,43.00
2019-02-11T11:56:03.468Z,43.00
2019-02-11T11:57:03.465Z,43.00
2019-02-11T11:58:03.435Z,43.00
2019-02-11T11:59:03.419Z,43.00
2019-02-11T12:00:03.457Z,43.00
2019-02-11T12:01:03.400Z,43.00
2019-02-11T12:02:03.392Z,43.00
2019-02-11T12:03:05.117Z,43.00
2019-02-11T12:04:06.173Z,42.90
2019-02-11T12:05:03.352Z,43.00
2019-02-11T12:06:03.383Z,42.90
2019-02-11T12:07:03.338Z,42.90
2019-02-11T12:08:03.327Z,43.00
2019-02-11T12:09:03.340Z,43.00
2019-02-11T12:10:03.304Z,43.00
2019-02-11T12:11:03.296Z,43.00
2019-02-11T12:12:03.288Z,43.00
2019-02-11T12:13:20.540Z,43.00
2019-02-11T12:14:04.282Z,42.90
2019-02-11T12:15:03.285Z,42.90
2019-02-11T12:16:03.236Z,42.90
2019-02-11T12:17:03.647Z,42.90
2019-02-11T12:18:03.269Z,43.00
2019-02-11T12:19:03.243Z,43.00
2019-02-11T12:20:03.192Z,42.90
2019-02-11T12:21:03.297Z,42.90
2019-02-11T12:22:03.195Z,42.90
2019-02-11T12:23:03.166Z,42.90
2019-02-11T12:24:03.154Z,42.80
2019-02-11T12:25:03.133Z,42.80
2019-02-11T12:26:03.128Z,42.80
2019-02-11T12:27:03.119Z,42.80
2019-02-11T12:28:03.132Z,42.69
2019-02-11T12:29:03.103Z,42.69
2019-02-11T12:30:03.089Z,42.69
2019-02-11T12:31:03.074Z,42.69
2019-02-11T12:32:03.078Z,42.69
2019-02-11T12:33:03.282Z,42.69
2019-02-11T12:34:03.050Z,42.69
2019-02-11T12:35:03.033Z,42.69
2019-02-11T12:36:03.025Z,42.69
2019-02-11T12:37:03.054Z,42.69
2019-02-11T12:38:03.021Z,42.80
2019-02-11T12:39:03.012Z,42.80
2019-02-11T12:40:02.970Z,42.90
2019-02-11T12:41:02.989Z,42.80
2019-02-11T12:42:02.964Z,42.80
2019-02-11T12:43:02.951Z,42.80
2019-02-11T12:44:02.957Z,42.80
2019-02-11T12:45:02.985Z,42.69
2019-02-11T12:46:02.960Z,42.69
2019-02-11T12:47:13.059Z,42.69
2019-02-11T12:48:03.896Z,42.69
2019-02-11T12:49:02.894Z,42.69
2019-02-11T12:50:02.872Z,42.69
2019-02-11T12:51:02.891Z,42.69
2019-02-11T12:52:02.876Z,42.69